createdAt,value
2018-05-16T00:00:10.522Z,8.13
2018-05-16T00:02:37.382Z,9.18
2018-05-16T00:05:04.456Z,8.55
2018-05-16T00:07:30.676Z,9.10
2018-05-16T00:09:57.416Z,9.50
2018-05-16T00:12:23.648Z,9.20
2018-05-16T00:14:49.895Z,10.20
2018-05-16T00:17:16.248Z,10.98
2018-05-16T00:19:42.602Z,9.20
2018-05-16T00:22:08.845Z,9.50
2018-05-16T00:24:35.802Z,10.38
2018-05-16T00:27:02.054Z,10.10
2018-05-16T00:29:28.283Z,10.00
2018-05-16T00:31:54.540Z,11.40
2018-05-16T00:34:20.764Z,11.40
2018-05-16T00:36:48.341Z,10.02
2018-05-16T00:39:14.747Z,11.48
2018-05-16T00:41:40.997Z,9.98
2018-05-16T00:44:07.213Z,10.70
2018-05-16T00:46:33.457Z,11.05
2018-05-16T00:48:59.709Z,10.63
2018-05-16T00:51:29.797Z,10.73
2018-05-16T00:53:56.023Z,12.07
2018-05-16T00:56:22.269Z,10.65
2018-05-16T00:58:48.501Z,10.95
2018-05-16T01:01:14.759Z,11.65
2018-05-16T01:03:41.805Z,11.52
2018-05-16T01:06:08.037Z,12.00
2018-05-16T01:08:34.985Z,11.25
2018-05-16T01:11:01.227Z,11.93
2018-05-16T01:13:27.458Z,12.35
2018-05-16T01:15:53.702Z,12.52
2018-05-16T01:18:19.942Z,11.85
2018-05-16T01:20:46.193Z,12.43
2018-05-16T01:23:12.435Z,12.25
2018-05-16T01:25:38.679Z,13.00
2018-05-16T01:28:04.911Z,13.98
2018-05-16T01:30:31.137Z,13.00
2018-05-16T01:32:57.378Z,12.30
2018-05-16T01:35:23.591Z,13.27
2018-05-16T01:37:49.826Z,12.75
2018-05-16T01:40:16.804Z,13.00
2018-05-16T01:42:43.053Z,13.75
2018-05-16T01:45:09.269Z,12.48
2018-05-16T01:47:35.498Z,13.95
2018-05-16T01:50:02.479Z,12.90
2018-05-16T01:52:28.747Z,14.63
2018-05-16T01:54:54.968Z,13.75
2018-05-16T01:57:21.228Z,14.68
2018-05-16T01:59:47.444Z,13.88
2018-05-16T02:02:13.678Z,14.60
2018-05-16T02:04:39.948Z,14.10
2018-05-16T02:07:06.177Z,13.00
2018-05-16T02:09:32.412Z,14.45
2018-05-16T02:11:58.646Z,13.80
2018-05-16T02:14:24.859Z,14.15
2018-05-16T02:16:51.838Z,15.32
2018-05-16T02:19:18.054Z,14.05
2018-05-16T02:21:45.056Z,14.20
2018-05-16T02:24:11.296Z,13.95
2018-05-16T02:26:37.536Z,13.00
2018-05-16T02:29:03.764Z,13.13
2018-05-16T02:31:29.998Z,13.93
2018-05-16T02:33:56.214Z,12.95
2018-05-16T02:36:23.192Z,13.73
2018-05-16T02:38:49.414Z,13.07
2018-05-16T02:41:16.402Z,12.37
2018-05-16T02:43:42.628Z,12.93
2018-05-16T02:46:08.865Z,14.13
2018-05-16T02:48:35.838Z,12.37
2018-05-16T02:51:02.045Z,13.53
2018-05-16T02:53:29.032Z,12.80
2018-05-16T02:55:55.287Z,12.30
2018-05-16T02:58:21.536Z,12.83
2018-05-16T03:00:47.793Z,13.80
2018-05-16T03:03:14.056Z,13.00
2018-05-16T03:05:41.105Z,12.93
2018-05-16T03:08:07.346Z,14.13
2018-05-16T03:10:33.597Z,14.87
2018-05-16T03:12:59.847Z,14.00
2018-05-16T03:15:26.838Z,15.05
2018-05-16T03:17:53.077Z,14.13
2018-05-16T03:20:19.303Z,13.80
2018-05-16T03:22:45.563Z,14.37
2018-05-16T03:25:11.776Z,14.50
2018-05-16T03:27:38.791Z,13.73
2018-05-16T03:30:05.031Z,13.70
2018-05-16T03:32:31.268Z,14.40
2018-05-16T03:34:57.473Z,14.10
2018-05-16T03:37:23.712Z,15.40
2018-05-16T03:39:49.927Z,15.07
2018-05-16T03:42:16.167Z,14.50
2018-05-16T03:44:42.372Z,13.37
2018-05-16T03:47:08.601Z,14.50
2018-05-16T03:49:34.831Z,15.10
2018-05-16T03:52:01.113Z,14.10
2018-05-16T03:54:27.299Z,14.57
2018-05-16T03:56:53.639Z,15.73
2018-05-16T03:59:32.061Z,15.90
2018-05-16T04:02:11.254Z,13.87
2018-05-16T04:04:37.628Z,14.83
2018-05-16T04:07:03.838Z,16.97
2018-05-16T04:09:30.089Z,15.87
2018-05-16T04:11:57.189Z,14.80
2018-05-16T04:14:24.184Z,16.27
2018-05-16T04:16:50.400Z,15.60
2018-05-16T04:19:16.630Z,16.80
2018-05-16T04:21:43.602Z,17.40
2018-05-16T04:24:09.846Z,17.20
2018-05-16T04:26:36.070Z,15.50
2018-05-16T04:29:03.294Z,15.57
2018-05-16T04:31:29.719Z,17.93
2018-05-16T04:33:56.135Z,16.20
2018-05-16T04:36:22.351Z,16.90
2018-05-16T04:38:49.362Z,16.75
2018-05-16T04:41:15.582Z,15.83
2018-05-16T04:43:41.814Z,17.52
2018-05-16T04:46:08.030Z,17.23
2018-05-16T04:48:34.258Z,16.73
2018-05-16T04:51:01.242Z,15.73
2018-05-16T04:53:27.487Z,17.17
2018-05-16T04:55:53.733Z,17.05
2018-05-16T04:58:19.992Z,18.50
2018-05-16T05:00:46.257Z,16.67
2018-05-16T05:03:12.509Z,18.25
2018-05-16T05:05:38.864Z,17.20
2018-05-16T05:08:05.831Z,19.23
2018-05-16T05:10:32.814Z,16.80
2018-05-16T05:12:59.038Z,16.73
2018-05-16T05:15:25.271Z,17.30
2018-05-16T05:17:52.233Z,17.05
2018-05-16T05:20:18.457Z,17.90
2018-05-16T05:22:45.686Z,16.20
2018-05-16T05:25:12.712Z,17.42
2018-05-16T05:27:38.985Z,18.10
2018-05-16T05:30:05.237Z,19.05
2018-05-16T05:32:31.450Z,16.92
2018-05-16T05:34:57.687Z,16.80
2018-05-16T05:37:23.928Z,17.95
2018-05-16T05:39:50.195Z,17.70
2018-05-16T05:42:16.425Z,18.30
2018-05-16T05:44:42.653Z,16.27
2018-05-16T05:47:08.877Z,19.37
2018-05-16T05:49:35.125Z,16.97
2018-05-16T05:52:01.343Z,17.10
2018-05-16T05:54:27.586Z,18.37
2018-05-16T05:56:53.810Z,17.83
2018-05-16T05:59:20.804Z,17.33
2018-05-16T06:01:47.014Z,18.80
2018-05-16T06:04:14.074Z,18.20
2018-05-16T06:06:40.309Z,17.40
2018-05-16T06:09:06.560Z,16.70
2018-05-16T06:11:33.512Z,16.83
2018-05-16T06:14:00.490Z,16.63
2018-05-16T06:16:26.735Z,17.70
2018-05-16T06:18:52.956Z,17.00
2018-05-16T06:21:19.965Z,17.60
2018-05-16T06:23:46.186Z,17.10
2018-05-16T06:26:12.424Z,15.70
2018-05-16T06:28:38.626Z,15.97
2018-05-16T06:31:05.606Z,16.10
2018-05-16T06:33:31.840Z,17.17
2018-05-16T06:35:58.806Z,17.10
2018-05-16T06:38:25.017Z,14.03
2018-05-16T06:40:51.263Z,15.50
2018-05-16T06:43:18.241Z,17.13
2018-05-16T06:45:44.905Z,15.60
2018-05-16T06:48:11.182Z,14.87
2018-05-16T06:50:38.247Z,15.40
2018-05-16T06:53:04.478Z,15.13
2018-05-16T06:55:30.728Z,16.50
2018-05-16T06:57:56.948Z,15.00
2018-05-16T07:00:23.232Z,14.97
2018-05-16T07:02:50.205Z,16.13
2018-05-16T07:05:16.452Z,17.30
2018-05-16T07:07:42.693Z,15.40
2018-05-16T07:10:08.944Z,14.83
2018-05-16T07:12:35.157Z,16.20
2018-05-16T07:15:02.159Z,16.90
2018-05-16T07:17:28.374Z,15.00
2018-05-16T07:19:54.623Z,15.30
2018-05-16T07:22:20.885Z,15.80
2018-05-16T07:24:47.131Z,14.93
2018-05-16T07:27:13.335Z,14.90
2018-05-16T07:29:39.553Z,13.90
2018-05-16T07:32:06.569Z,13.50
2018-05-16T07:34:32.773Z,15.30
2018-05-16T07:36:59.738Z,14.60
2018-05-16T07:39:25.949Z,13.63
2018-05-16T07:41:52.197Z,15.00
2018-05-16T07:44:18.420Z,15.77
2018-05-16T07:46:44.683Z,14.00
2018-05-16T07:49:11.641Z,14.77
2018-05-16T07:51:38.679Z,15.07
2018-05-16T07:54:04.899Z,14.77
2018-05-16T07:56:31.132Z,14.73
2018-05-16T07:58:57.358Z,14.20
2018-05-16T08:01:23.635Z,13.60
2018-05-16T08:03:49.899Z,12.70
2018-05-16T08:06:16.896Z,14.87
2018-05-16T08:08:43.127Z,14.83
2018-05-16T08:11:09.369Z,12.10
2018-05-16T08:13:35.594Z,13.40
2018-05-16T08:16:01.843Z,12.60
2018-05-16T08:18:28.099Z,11.53
2018-05-16T08:20:54.355Z,12.33
2018-05-16T08:23:20.588Z,12.33
2018-05-16T08:25:46.850Z,13.00
2018-05-16T08:28:13.058Z,12.07
2018-05-16T08:30:39.300Z,13.70
2018-05-16T08:33:05.514Z,12.00
2018-05-16T08:35:31.816Z,11.10
2018-05-16T08:37:58.031Z,11.23
2018-05-16T08:40:24.274Z,10.83
2018-05-16T08:42:50.528Z,11.97
2018-05-16T08:45:16.770Z,10.90
2018-05-16T08:47:43.001Z,11.00
2018-05-16T08:50:09.251Z,8.23
2018-05-16T08:52:35.632Z,8.10
2018-05-16T08:55:01.855Z,7.20
2018-05-16T08:57:28.106Z,9.40
2018-05-16T08:59:54.816Z,8.27
2018-05-16T09:02:21.073Z,8.40
2018-05-16T09:04:47.287Z,7.60
2018-05-16T09:07:13.532Z,8.80
2018-05-16T09:09:39.748Z,7.73
2018-05-16T09:12:05.976Z,8.90
2018-05-16T09:14:32.212Z,8.37
2018-05-16T09:16:59.190Z,9.53
2018-05-16T09:19:25.447Z,7.00
2018-05-16T09:21:51.699Z,6.60
2018-05-16T09:24:17.902Z,10.47
2018-05-16T09:26:44.134Z,8.03
2018-05-16T09:29:10.360Z,7.30
2018-05-16T09:31:37.348Z,7.20
2018-05-16T09:34:03.578Z,7.33
2018-05-16T09:36:29.818Z,5.53
2018-05-16T09:38:56.786Z,10.17
2018-05-16T09:41:23.081Z,8.43
2018-05-16T09:43:49.310Z,5.90
2018-05-16T09:46:15.540Z,6.87
2018-05-16T09:48:41.781Z,6.00
2018-05-16T09:51:08.031Z,7.30
2018-05-16T09:53:34.277Z,6.87
2018-05-16T09:56:00.509Z,7.70
2018-05-16T09:58:26.753Z,6.20
2018-05-16T10:00:53.365Z,6.40
2018-05-16T10:03:19.627Z,6.10
2018-05-16T10:05:45.855Z,6.53
2018-05-16T10:08:12.091Z,7.30
2018-05-16T10:10:38.313Z,7.23
2018-05-16T10:13:04.569Z,6.30
2018-05-16T10:15:30.833Z,5.00
2018-05-16T10:17:57.065Z,5.43
2018-05-16T10:20:23.306Z,5.03
2018-05-16T10:22:49.556Z,4.27
2018-05-16T10:25:15.773Z,4.60
2018-05-16T10:27:42.011Z,5.10
2018-05-16T10:30:08.237Z,4.23
2018-05-16T10:32:34.497Z,4.47
2018-05-16T10:35:01.505Z,5.10
2018-05-16T10:37:28.501Z,4.50
2018-05-16T10:39:54.747Z,5.30
2018-05-16T10:42:21.026Z,5.43
2018-05-16T10:44:47.279Z,5.27
2018-05-16T10:47:13.538Z,5.47
2018-05-16T10:49:40.492Z,5.23
2018-05-16T10:52:06.758Z,5.20
2018-05-16T10:54:32.985Z,5.40
2018-05-16T10:56:59.940Z,5.60
2018-05-16T10:59:26.919Z,5.10
2018-05-16T11:01:53.399Z,5.57
2018-05-16T11:04:19.621Z,6.77
2018-05-16T11:06:45.859Z,6.90
2018-05-16T11:09:12.103Z,5.40
2018-05-16T11:11:38.348Z,6.00
2018-05-16T11:14:04.635Z,6.10
2018-05-16T11:16:30.865Z,5.90
2018-05-16T11:18:57.089Z,5.47
2018-05-16T11:21:23.336Z,6.57
2018-05-16T11:23:49.570Z,5.13
2018-05-16T11:26:15.818Z,5.63
2018-05-16T11:28:42.085Z,4.80
2018-05-16T11:31:09.076Z,5.13
2018-05-16T11:33:35.330Z,6.90
2018-05-16T11:36:01.550Z,5.97
2018-05-16T11:38:27.790Z,5.50
2018-05-16T11:40:54.012Z,5.40
2018-05-16T11:43:20.278Z,5.10
2018-05-16T11:45:46.490Z,4.70
2018-05-16T11:48:13.466Z,5.83
2018-05-16T11:50:39.702Z,5.57
2018-05-16T11:53:06.681Z,5.60
2018-05-16T11:55:32.926Z,6.03
2018-05-16T11:57:59.162Z,6.10
2018-05-16T12:00:25.422Z,5.40
2018-05-16T12:02:51.776Z,5.60
2018-05-16T12:05:18.692Z,5.53
2018-05-16T12:07:44.926Z,6.07
2018-05-16T12:10:11.138Z,6.87
2018-05-16T12:12:37.368Z,6.70
2018-05-16T12:15:03.632Z,7.20
2018-05-16T12:17:29.865Z,6.47
2018-05-16T12:19:56.133Z,5.30
2018-05-16T12:22:23.123Z,6.40
2018-05-16T12:24:49.367Z,6.43
2018-05-16T12:27:15.626Z,6.27
2018-05-16T12:29:41.855Z,7.17
2018-05-16T12:32:08.171Z,6.83
2018-05-16T12:34:34.407Z,6.57
2018-05-16T12:37:00.643Z,6.20
2018-05-16T12:39:26.887Z,5.67
2018-05-16T12:41:53.131Z,5.07
2018-05-16T12:44:19.391Z,5.00
2018-05-16T12:46:45.633Z,5.17
2018-05-16T12:49:11.893Z,5.37
2018-05-16T12:51:38.139Z,5.33
2018-05-16T12:54:04.392Z,5.60
2018-05-16T12:56:30.603Z,5.30
2018-05-16T12:58:56.870Z,4.50
2018-05-16T13:01:23.140Z,5.50
2018-05-16T13:03:50.149Z,5.70
2018-05-16T13:06:16.393Z,5.60
2018-05-16T13:08:42.646Z,5.47
2018-05-16T13:11:08.885Z,6.30
2018-05-16T13:13:35.152Z,5.90
2018-05-16T13:16:02.145Z,6.10
2018-05-16T13:18:28.387Z,6.67
2018-05-16T13:20:54.648Z,6.70
2018-05-16T13:23:20.868Z,5.90
2018-05-16T13:25:47.093Z,6.20
2018-05-16T13:28:13.325Z,5.53
2018-05-16T13:30:39.623Z,5.33
2018-05-16T13:33:05.843Z,5.90
2018-05-16T13:35:32.124Z,6.77
2018-05-16T13:37:58.346Z,5.60
2018-05-16T13:40:24.585Z,6.00
2018-05-16T13:42:50.842Z,5.90
2018-05-16T13:45:17.084Z,7.50
2018-05-16T13:47:43.316Z,6.60
2018-05-16T13:50:09.558Z,6.67
2018-05-16T13:52:35.801Z,7.87
2018-05-16T13:55:02.102Z,6.70
2018-05-16T13:57:28.361Z,7.50
2018-05-16T13:59:54.632Z,7.07
2018-05-16T14:02:20.893Z,7.77
2018-05-16T14:04:47.148Z,7.67
2018-05-16T14:07:13.399Z,8.10
2018-05-16T14:09:39.651Z,6.77
2018-05-16T14:12:05.906Z,7.57
2018-05-16T14:14:32.134Z,7.60
2018-05-16T14:16:58.372Z,7.10
2018-05-16T14:19:24.651Z,6.90
2018-05-16T14:21:50.942Z,7.87
2018-05-16T14:24:17.215Z,6.77
2018-05-16T14:26:43.463Z,7.37
2018-05-16T14:29:09.721Z,7.90
2018-05-16T14:31:35.977Z,7.87
2018-05-16T14:34:02.216Z,6.20
2018-05-16T14:36:29.209Z,6.40
2018-05-16T14:38:56.192Z,6.90
2018-05-16T14:41:22.449Z,6.83
2018-05-16T14:43:48.678Z,7.10
2018-05-16T14:46:14.939Z,8.17
2018-05-16T14:48:41.163Z,7.53
2018-05-16T14:51:07.407Z,7.47
2018-05-16T14:53:33.719Z,7.37
2018-05-16T14:55:59.953Z,6.90
2018-05-16T14:58:26.189Z,6.40
2018-05-16T15:00:52.423Z,7.00
2018-05-16T15:03:18.668Z,5.73
2018-05-16T15:05:44.931Z,5.57
2018-05-16T15:08:11.159Z,6.83
2018-05-16T15:10:37.416Z,5.47
2018-05-16T15:13:03.667Z,6.27
2018-05-16T15:15:29.906Z,5.60
2018-05-16T15:17:56.147Z,5.57
2018-05-16T15:20:22.393Z,5.47
2018-05-16T15:22:48.639Z,6.40
2018-05-16T15:25:14.885Z,5.73
2018-05-16T15:27:41.143Z,5.97
2018-05-16T15:30:08.159Z,5.53
2018-05-16T15:32:34.440Z,5.80
2018-05-16T15:35:00.663Z,5.80
2018-05-16T15:37:26.931Z,5.97
2018-05-16T15:39:53.919Z,6.10
2018-05-16T15:42:20.196Z,9.33
2018-05-16T15:44:46.461Z,17.90
2018-05-16T15:47:12.731Z,17.03
2018-05-16T15:49:39.070Z,10.67
2018-05-16T15:52:05.410Z,5.50
2018-05-16T15:54:31.648Z,5.03
2018-05-16T15:56:58.663Z,6.90
2018-05-16T15:59:25.114Z,7.20
2018-05-16T16:01:51.374Z,5.53
2018-05-16T16:04:17.633Z,5.90
2018-05-16T16:06:44.636Z,6.40
2018-05-16T16:09:10.926Z,5.93
2018-05-16T16:11:37.923Z,5.67
2018-05-16T16:14:04.203Z,6.60
2018-05-16T16:16:30.486Z,6.17
2018-05-16T16:18:56.744Z,6.60
2018-05-16T16:21:23.026Z,6.40
2018-05-16T16:23:49.292Z,7.60
2018-05-16T16:26:16.292Z,6.40
2018-05-16T16:28:42.551Z,7.97
2018-05-16T16:31:08.848Z,7.53
2018-05-16T16:33:35.136Z,7.40
2018-05-16T16:36:01.417Z,7.43
2018-05-16T16:38:27.708Z,7.80
2018-05-16T16:40:54.054Z,8.33
2018-05-16T16:43:20.328Z,8.10
2018-05-16T16:45:46.634Z,8.27
2018-05-16T16:48:12.931Z,8.47
2018-05-16T16:50:39.216Z,8.67
2018-05-16T16:53:05.514Z,8.17
2018-05-16T16:55:31.847Z,9.27
2018-05-16T16:57:58.165Z,8.13
2018-05-16T17:00:24.466Z,10.03
2018-05-16T17:02:50.764Z,9.90
2018-05-16T17:05:17.779Z,7.90
2018-05-16T17:07:44.069Z,8.47
2018-05-16T17:10:11.091Z,7.90
2018-05-16T17:12:37.369Z,8.47
2018-05-16T17:15:04.211Z,8.03
2018-05-16T17:17:31.225Z,8.67
2018-05-16T17:19:58.501Z,7.70
2018-05-16T17:22:24.866Z,7.87
2018-05-16T17:24:51.187Z,8.60
2018-05-16T17:27:17.487Z,9.37
2018-05-16T17:29:44.513Z,7.90
2018-05-16T17:32:10.809Z,8.50
2018-05-16T17:34:37.117Z,8.07
2018-05-16T17:37:04.181Z,9.40
2018-05-16T17:39:30.485Z,10.03
2018-05-16T17:41:56.835Z,9.67
2018-05-16T17:44:23.167Z,10.70
2018-05-16T17:46:49.493Z,10.57
2018-05-16T17:49:15.845Z,10.67
2018-05-16T17:51:42.133Z,10.27
2018-05-16T17:54:08.427Z,11.67
2018-05-16T17:56:34.741Z,10.70
2018-05-16T17:59:01.057Z,10.83
2018-05-16T18:01:27.328Z,11.00
2018-05-16T18:03:53.647Z,10.77
2018-05-16T18:06:21.660Z,7.80
2018-05-16T18:08:48.690Z,5.77
2018-05-16T18:11:15.746Z,4.10
2018-05-16T18:14:03.802Z,3.40
2018-05-16T18:16:43.087Z,3.80
2018-05-16T18:19:09.436Z,3.40
2018-05-16T18:21:35.758Z,2.90
2018-05-16T18:24:02.107Z,2.93
2018-05-16T18:26:28.412Z,2.77
2018-05-16T18:28:54.742Z,2.70
2018-05-16T18:31:21.072Z,2.70
2018-05-16T18:33:47.395Z,2.90
2018-05-16T18:36:13.731Z,2.77
2018-05-16T18:38:40.056Z,2.63
2018-05-16T18:41:06.852Z,3.30
2018-05-16T18:43:33.156Z,2.37
2018-05-16T18:46:00.248Z,2.60
2018-05-16T18:48:26.593Z,2.70
2018-05-16T18:50:52.945Z,2.57
2018-05-16T18:53:19.308Z,2.50
2018-05-16T18:55:45.686Z,2.80
2018-05-16T18:58:11.993Z,2.80
2018-05-16T19:00:38.628Z,2.40
2018-05-16T19:03:05.732Z,2.90
2018-05-16T19:05:32.064Z,2.73
2018-05-16T19:07:59.109Z,2.43
2018-05-16T19:10:25.429Z,2.70
2018-05-16T19:12:51.753Z,2.73
2018-05-16T19:15:18.139Z,2.97
2018-05-16T19:17:44.500Z,3.27
2018-05-16T19:20:11.665Z,3.13
2018-05-16T19:22:37.968Z,3.07
2018-05-16T19:25:04.299Z,3.40
2018-05-16T19:27:30.634Z,3.20
2018-05-16T19:29:56.955Z,3.60
2018-05-16T19:32:23.279Z,3.10
2018-05-16T19:34:49.634Z,3.53
2018-05-16T19:37:15.952Z,3.10
2018-05-16T19:39:43.021Z,2.42
2018-05-16T19:42:10.055Z,2.80
2018-05-16T19:44:36.390Z,2.43
2018-05-16T19:47:02.676Z,3.20
2018-05-16T19:49:29.077Z,3.17
2018-05-16T19:51:55.365Z,2.87
2018-05-16T19:54:21.700Z,3.30
2018-05-16T19:56:48.008Z,2.80
2018-05-16T19:59:14.363Z,3.80
2018-05-16T20:01:40.748Z,3.63
2018-05-16T20:04:07.095Z,2.80
2018-05-16T20:06:33.385Z,3.70
2018-05-16T20:08:59.772Z,3.50
2018-05-16T20:11:26.090Z,3.30
2018-05-16T20:13:53.156Z,3.30
2018-05-16T20:16:20.214Z,3.80
2018-05-16T20:18:47.287Z,4.17
2018-05-16T20:21:13.617Z,4.33
2018-05-16T20:23:39.921Z,4.60
2018-05-16T20:26:06.216Z,5.60
2018-05-16T20:28:32.494Z,5.93
2018-05-16T20:30:58.810Z,6.20
2018-05-16T20:33:25.136Z,6.17
2018-05-16T20:35:51.448Z,6.70
2018-05-16T20:38:17.824Z,6.70
2018-05-16T20:40:44.066Z,6.70
2018-05-16T20:43:10.354Z,7.37
2018-05-16T20:45:36.636Z,6.73
2018-05-16T20:48:03.657Z,8.37
2018-05-16T20:50:29.941Z,7.13
2018-05-16T20:52:56.922Z,8.60
2018-05-16T20:55:23.145Z,7.40
2018-05-16T20:57:49.405Z,9.03
2018-05-16T21:00:15.663Z,8.50
2018-05-16T21:02:41.873Z,9.90
2018-05-16T21:05:08.152Z,9.10
2018-05-16T21:07:34.367Z,9.63
2018-05-16T21:10:00.641Z,9.43
2018-05-16T21:12:26.873Z,10.00
2018-05-16T21:14:53.161Z,8.10
2018-05-16T21:17:20.134Z,8.30
2018-05-16T21:19:46.372Z,8.33
2018-05-16T21:22:12.599Z,8.90
2018-05-16T21:24:38.879Z,8.43
2018-05-16T21:27:05.100Z,8.87
2018-05-16T21:29:31.304Z,9.57
2018-05-16T21:31:57.571Z,8.20
2018-05-16T21:34:23.803Z,9.60
2018-05-16T21:36:50.057Z,9.40
2018-05-16T21:39:16.321Z,8.90
2018-05-16T21:41:42.552Z,9.73
2018-05-16T21:44:08.773Z,10.27
2018-05-16T21:46:35.016Z,10.07
2018-05-16T21:49:01.254Z,10.50
2018-05-16T21:51:27.495Z,10.00
2018-05-16T21:53:53.715Z,11.10
2018-05-16T21:56:19.947Z,10.93
2018-05-16T21:58:46.199Z,11.70
2018-05-16T22:01:12.432Z,10.53
2018-05-16T22:03:38.679Z,11.30
2018-05-16T22:06:04.927Z,12.60
2018-05-16T22:08:31.175Z,12.50
2018-05-16T22:10:57.427Z,11.50
2018-05-16T22:13:23.675Z,11.57
2018-05-16T22:15:49.930Z,11.30
2018-05-16T22:18:16.165Z,11.80
2018-05-16T22:20:42.415Z,11.27
2018-05-16T22:23:09.551Z,12.03
2018-05-16T22:25:35.793Z,12.23
2018-05-16T22:28:02.006Z,12.00
2018-05-16T22:30:34.335Z,12.40
2018-05-16T22:33:06.626Z,12.20
2018-05-16T22:35:38.967Z,13.20
2018-05-16T22:38:11.991Z,12.93
2018-05-16T22:40:44.311Z,14.10
2018-05-16T22:43:10.441Z,14.77
2018-05-16T22:45:38.695Z,14.23
2018-05-16T22:48:04.925Z,13.50
2018-05-16T22:50:31.236Z,14.40
2018-05-16T22:52:57.473Z,15.87
2018-05-16T22:55:23.713Z,15.60
2018-05-16T22:57:49.938Z,16.33
2018-05-16T23:00:17.041Z,13.10
2018-05-16T23:02:43.302Z,14.97
2018-05-16T23:05:09.574Z,13.77
2018-05-16T23:07:35.816Z,16.27
2018-05-16T23:10:02.079Z,16.07
2018-05-16T23:12:28.320Z,14.50
2018-05-16T23:14:54.556Z,15.60
2018-05-16T23:17:20.793Z,16.90
2018-05-16T23:19:47.010Z,16.70
2018-05-16T23:22:13.278Z,16.10
2018-05-16T23:24:39.512Z,15.50
2018-05-16T23:27:05.748Z,18.00
2018-05-16T23:29:31.978Z,16.70
2018-05-16T23:31:58.201Z,16.57
2018-05-16T23:34:24.434Z,17.13
2018-05-16T23:36:50.688Z,16.97
2018-05-16T23:39:16.913Z,17.00
2018-05-16T23:41:43.146Z,15.70
2018-05-16T23:44:09.374Z,17.10
2018-05-16T23:46:35.597Z,16.10
2018-05-16T23:49:01.943Z,15.67
2018-05-16T23:51:28.174Z,15.87
2018-05-16T23:53:54.417Z,19.43
2018-05-16T23:56:20.627Z,16.13
2018-05-16T23:58:46.866Z,16.37
